createdAt,value
2022-09-27T00:12:04.455Z,100
2022-09-27T00:23:00.728Z,100
2022-09-27T00:37:56.856Z,100
2022-09-27T00:52:53.004Z,100
2022-09-27T01:07:49.245Z,100
2022-09-27T01:14:41.496Z,100
2022-09-27T01:29:37.596Z,100
2022-09-27T01:44:33.729Z,100
2022-09-27T01:51:18.169Z,100
2022-09-27T02:06:14.625Z,100
2022-09-27T02:21:11.177Z,100
2022-09-27T02:36:06.850Z,100
2022-09-27T02:51:03.005Z,100
2022-09-27T03:05:59.546Z,100
2022-09-27T03:20:56.129Z,100
2022-09-27T03:35:52.438Z,100
2022-09-27T03:50:48.318Z,100
2022-09-27T04:05:44.457Z,100
2022-09-27T04:20:40.449Z,100
2022-09-27T04:35:36.492Z,100
2022-09-27T04:50:34.482Z,100
2022-09-27T05:05:28.195Z,100
2022-09-27T05:20:24.595Z,100
2022-09-27T05:35:20.823Z,100
2022-09-27T05:50:16.989Z,100
2022-09-27T06:05:12.953Z,100
2022-09-27T06:20:09.342Z,100
2022-09-27T06:35:05.504Z,100
2022-09-27T06:50:01.990Z,100
2022-09-27T07:04:58.679Z,100
2022-09-27T07:19:55.412Z,97.35
2022-09-27T07:34:51.395Z,94.36
2022-09-27T07:49:47.865Z,90.11
2022-09-27T08:04:44.530Z,85.43
2022-09-27T08:19:41.247Z,81.34
2022-09-27T08:34:37.485Z,85.44
2022-09-27T08:49:33.902Z,80.08
2022-09-27T09:04:30.453Z,76.06
2022-09-27T09:19:26.749Z,77.25
2022-09-27T09:34:22.862Z,74.37
2022-09-27T09:49:19.833Z,72.93
2022-09-27T10:04:16.058Z,70.26
2022-09-27T10:19:11.721Z,73.02
2022-09-27T10:34:07.508Z,72.87
2022-09-27T10:49:04.536Z,70.54
2022-09-27T11:04:00.698Z,70.39
2022-09-27T11:18:57.273Z,67.13
2022-09-27T11:33:53.363Z,66.59
2022-09-27T11:48:49.794Z,67.71
2022-09-27T12:03:46.027Z,71.09
2022-09-27T12:18:42.006Z,70.87
2022-09-27T12:33:38.545Z,69.59
2022-09-27T12:48:35.011Z,68.68
2022-09-27T13:03:32.124Z,68.26
2022-09-27T13:18:28.651Z,68.24
2022-09-27T13:33:24.581Z,67.01
2022-09-27T13:48:21.209Z,68.94
2022-09-27T14:03:18.018Z,72.21
2022-09-27T14:18:13.350Z,88.05
2022-09-27T14:33:08.737Z,96.65
2022-09-27T14:48:04.578Z,97.43
2022-09-27T15:03:00.842Z,89.27
2022-09-27T15:17:57.137Z,89.69
2022-09-27T15:32:53.301Z,85.03
2022-09-27T15:47:49.602Z,88.09
2022-09-27T16:02:45.354Z,93.72
2022-09-27T16:17:40.632Z,98.17
2022-09-27T16:47:32.896Z,99.93
2022-09-27T17:02:28.350Z,100
2022-09-27T17:17:24.686Z,100
2022-09-27T17:32:20.863Z,100
2022-09-27T17:47:17.335Z,100
2022-09-27T18:02:13.477Z,100
2022-09-27T18:17:09.622Z,100
2022-09-27T18:32:05.622Z,100
2022-09-27T18:47:02.098Z,100
2022-09-27T19:16:54.105Z,100
2022-09-27T19:31:50.380Z,100
2022-09-27T19:46:46.497Z,100
2022-09-27T20:01:42.983Z,100
2022-09-27T20:16:41.317Z,100
2022-09-27T20:31:35.447Z,100
2022-09-27T20:46:32.075Z,100
2022-09-27T22:01:12.933Z,94.41
2022-09-27T22:16:09.042Z,96.61
2022-09-27T22:24:07.908Z,97.64
2022-09-27T22:39:02.856Z,100
2022-09-27T22:53:59.362Z,100
2022-09-27T23:08:55.661Z,100
2022-09-27T23:23:51.993Z,100
2022-09-27T23:38:48.158Z,100
2022-09-27T23:53:44.525Z,100
